sensor_id;sensor_type;location;lat;lon;timestamp;temperature;humidity
41447;DHT22;27185;52.040;4.490;2022-12-07T00:01:11;6.90;99.90
41447;DHT22;27185;52.040;4.490;2022-12-07T00:03:59;6.90;99.90
41447;DHT22;27185;52.040;4.490;2022-12-07T00:06:52;6.90;99.90
41447;DHT22;27185;52.040;4.490;2022-12-07T00:09:38;6.90;99.90
41447;DHT22;27185;52.040;4.490;2022-12-07T00:12:24;6.80;99.90
41447;DHT22;27185;52.040;4.490;2022-12-07T00:15:10;6.80;99.90
41447;DHT22;27185;52.040;4.490;2022-12-07T00:17:55;6.70;99.90
41447;DHT22;27185;52.040;4.490;2022-12-07T00:20:41;6.60;99.90
41447;DHT22;27185;52.040;4.490;2022-12-07T00:23:26;6.60;99.90
41447;DHT22;27185;52.040;4.490;2022-12-07T00:26:26;6.50;99.90
41447;DHT22;27185;52.040;4.490;2022-12-07T00:29:20;6.40;99.90
41447;DHT22;27185;52.040;4.490;2022-12-07T00:32:06;6.40;99.90
41447;DHT22;27185;52.040;4.490;2022-12-07T00:34:52;6.30;99.90
41447;DHT22;27185;52.040;4.490;2022-12-07T00:37:37;6.20;99.90
41447;DHT22;27185;52.040;4.490;2022-12-07T00:40:23;6.10;99.90
41447;DHT22;27185;52.040;4.490;2022-12-07T00:43:09;6.00;99.90
41447;DHT22;27185;52.040;4.490;2022-12-07T00:45:55;5.90;99.90
41447;DHT22;27185;52.040;4.490;2022-12-07T00:48:41;5.80;99.90
41447;DHT22;27185;52.040;4.490;2022-12-07T00:51:26;5.80;99.90
41447;DHT22;27185;52.040;4.490;2022-12-07T00:54:12;5.70;99.90
41447;DHT22;27185;52.040;4.490;2022-12-07T00:56:57;5.70;99.90
41447;DHT22;27185;52.040;4.490;2022-12-07T00:59:43;5.70;99.90
41447;DHT22;27185;52.040;4.490;2022-12-07T01:02:29;5.70;99.90
41447;DHT22;27185;52.040;4.490;2022-12-07T01:05:15;5.80;99.90
41447;DHT22;27185;52.040;4.490;2022-12-07T01:08:01;5.80;99.90
41447;DHT22;27185;52.040;4.490;2022-12-07T01:10:47;5.80;99.90
41447;DHT22;27185;52.040;4.490;2022-12-07T01:13:33;5.90;99.90
41447;DHT22;27185;52.040;4.490;2022-12-07T01:16:20;5.90;99.90
41447;DHT22;27185;52.040;4.490;2022-12-07T01:19:06;5.90;99.90
41447;DHT22;27185;52.040;4.490;2022-12-07T01:21:52;5.90;99.90
41447;DHT22;27185;52.040;4.490;2022-12-07T01:24:37;5.90;99.90
41447;DHT22;27185;52.040;4.490;2022-12-07T01:27:23;5.90;99.90
41447;DHT22;27185;52.040;4.490;2022-12-07T01:30:10;5.80;99.90
41447;DHT22;27185;52.040;4.490;2022-12-07T01:32:56;5.80;99.90
41447;DHT22;27185;52.040;4.490;2022-12-07T01:35:42;5.70;99.90
41447;DHT22;27185;52.040;4.490;2022-12-07T01:38:28;5.70;99.90
41447;DHT22;27185;52.040;4.490;2022-12-07T01:41:14;5.60;99.90
41447;DHT22;27185;52.040;4.490;2022-12-07T01:44:19;5.60;99.90
41447;DHT22;27185;52.040;4.490;2022-12-07T01:47:06;5.60;99.90
41447;DHT22;27185;52.040;4.490;2022-12-07T01:49:52;5.70;99.90
41447;DHT22;27185;52.040;4.490;2022-12-07T01:52:38;5.70;99.90
41447;DHT22;27185;52.040;4.490;2022-12-07T01:55:25;5.80;99.90
41447;DHT22;27185;52.040;4.490;2022-12-07T01:58:12;5.90;99.90
41447;DHT22;27185;52.040;4.490;2022-12-07T02:00:59;6.00;99.90
41447;DHT22;27185;52.040;4.490;2022-12-07T02:03:45;6.00;99.90
41447;DHT22;27185;52.040;4.490;2022-12-07T02:06:31;6.10;99.90
41447;DHT22;27185;52.040;4.490;2022-12-07T02:09:17;6.10;99.90
41447;DHT22;27185;52.040;4.490;2022-12-07T02:12:03;6.00;99.90
41447;DHT22;27185;52.040;4.490;2022-12-07T02:14:50;6.00;99.90
41447;DHT22;27185;52.040;4.490;2022-12-07T02:18:00;6.00;99.90
41447;DHT22;27185;52.040;4.490;2022-12-07T02:21:01;5.90;99.90
41447;DHT22;27185;52.040;4.490;2022-12-07T02:27:47;5.80;99.90
41447;DHT22;27185;52.040;4.490;2022-12-07T02:30:40;5.90;99.90
41447;DHT22;27185;52.040;4.490;2022-12-07T02:33:45;6.00;99.90
41447;DHT22;27185;52.040;4.490;2022-12-07T02:36:37;6.10;99.90
41447;DHT22;27185;52.040;4.490;2022-12-07T02:39:44;6.20;99.90
41447;DHT22;27185;52.040;4.490;2022-12-07T02:42:37;6.30;99.90
41447;DHT22;27185;52.040;4.490;2022-12-07T02:45:25;6.40;99.90
41447;DHT22;27185;52.040;4.490;2022-12-07T02:48:13;6.40;99.90
41447;DHT22;27185;52.040;4.490;2022-12-07T02:51:01;6.60;99.90
41447;DHT22;27185;52.040;4.490;2022-12-07T02:53:47;6.60;99.90
41447;DHT22;27185;52.040;4.490;2022-12-07T02:56:43;6.70;99.90
41447;DHT22;27185;52.040;4.490;2022-12-07T03:03:05;6.80;99.90
41447;DHT22;27185;52.040;4.490;2022-12-07T03:12:00;7.00;99.90
41447;DHT22;27185;52.040;4.490;2022-12-07T03:14:50;7.00;99.90
41447;DHT22;27185;52.040;4.490;2022-12-07T03:17:40;7.10;99.90
41447;DHT22;27185;52.040;4.490;2022-12-07T03:20:29;7.10;99.90
41447;DHT22;27185;52.040;4.490;2022-12-07T03:23:16;7.10;99.90
41447;DHT22;27185;52.040;4.490;2022-12-07T03:26:04;7.10;99.90
41447;DHT22;27185;52.040;4.490;2022-12-07T03:28:55;7.00;99.90
41447;DHT22;27185;52.040;4.490;2022-12-07T03:31:49;7.00;99.90
41447;DHT22;27185;52.040;4.490;2022-12-07T03:34:43;7.00;99.90
41447;DHT22;27185;52.040;4.490;2022-12-07T03:37:34;7.00;99.90
41447;DHT22;27185;52.040;4.490;2022-12-07T03:40:30;7.00;99.90
41447;DHT22;27185;52.040;4.490;2022-12-07T03:43:17;7.00;99.90
41447;DHT22;27185;52.040;4.490;2022-12-07T03:46:18;6.90;99.90
41447;DHT22;27185;52.040;4.490;2022-12-07T03:49:37;6.90;99.90
41447;DHT22;27185;52.040;4.490;2022-12-07T03:55:29;6.70;99.90
41447;DHT22;27185;52.040;4.490;2022-12-07T03:58:19;6.60;99.90
41447;DHT22;27185;52.040;4.490;2022-12-07T04:01:05;6.50;99.90
41447;DHT22;27185;52.040;4.490;2022-12-07T04:03:50;6.40;99.90
41447;DHT22;27185;52.040;4.490;2022-12-07T04:06:36;6.30;99.90
41447;DHT22;27185;52.040;4.490;2022-12-07T04:09:21;6.20;99.90
41447;DHT22;27185;52.040;4.490;2022-12-07T04:12:07;6.20;99.90
41447;DHT22;27185;52.040;4.490;2022-12-07T04:14:53;6.20;99.90
41447;DHT22;27185;52.040;4.490;2022-12-07T04:17:38;6.30;99.90
41447;DHT22;27185;52.040;4.490;2022-12-07T04:20:24;6.30;99.90
41447;DHT22;27185;52.040;4.490;2022-12-07T04:23:09;6.40;99.90
41447;DHT22;27185;52.040;4.490;2022-12-07T04:25:55;6.50;99.90
41447;DHT22;27185;52.040;4.490;2022-12-07T04:28:40;6.60;99.90
41447;DHT22;27185;52.040;4.490;2022-12-07T04:31:26;6.70;99.90
41447;DHT22;27185;52.040;4.490;2022-12-07T04:34:15;6.80;99.90
41447;DHT22;27185;52.040;4.490;2022-12-07T04:37:01;6.90;99.90
41447;DHT22;27185;52.040;4.490;2022-12-07T04:39:46;6.90;99.90
41447;DHT22;27185;52.040;4.490;2022-12-07T04:42:32;6.90;99.90
41447;DHT22;27185;52.040;4.490;2022-12-07T04:45:17;6.90;99.90
41447;DHT22;27185;52.040;4.490;2022-12-07T04:48:03;6.90;99.90
41447;DHT22;27185;52.040;4.490;2022-12-07T04:50:49;6.90;99.90
41447;DHT22;27185;52.040;4.490;2022-12-07T04:53:35;6.80;99.90
41447;DHT22;27185;52.040;4.490;2022-12-07T04:56:21;6.70;99.90
41447;DHT22;27185;52.040;4.490;2022-12-07T04:59:07;6.70;99.90
41447;DHT22;27185;52.040;4.490;2022-12-07T05:01:52;6.60;99.90
41447;DHT22;27185;52.040;4.490;2022-12-07T05:04:38;6.50;99.90
41447;DHT22;27185;52.040;4.490;2022-12-07T05:07:23;6.50;99.90
41447;DHT22;27185;52.040;4.490;2022-12-07T05:10:09;6.50;99.90
41447;DHT22;27185;52.040;4.490;2022-12-07T05:12:55;6.50;99.90
41447;DHT22;27185;52.040;4.490;2022-12-07T05:15:41;6.40;99.90
41447;DHT22;27185;52.040;4.490;2022-12-07T05:18:28;6.30;99.90
41447;DHT22;27185;52.040;4.490;2022-12-07T05:21:14;6.20;99.90
41447;DHT22;27185;52.040;4.490;2022-12-07T05:24:00;6.10;99.90
41447;DHT22;27185;52.040;4.490;2022-12-07T05:26:46;6.00;99.90
41447;DHT22;27185;52.040;4.490;2022-12-07T05:29:31;5.90;99.90
41447;DHT22;27185;52.040;4.490;2022-12-07T05:32:17;5.80;99.90
41447;DHT22;27185;52.040;4.490;2022-12-07T05:35:03;5.70;99.90
41447;DHT22;27185;52.040;4.490;2022-12-07T05:37:49;5.60;99.90
41447;DHT22;27185;52.040;4.490;2022-12-07T05:40:34;5.50;99.90
41447;DHT22;27185;52.040;4.490;2022-12-07T05:43:20;5.40;99.90
41447;DHT22;27185;52.040;4.490;2022-12-07T05:46:05;5.30;99.90
41447;DHT22;27185;52.040;4.490;2022-12-07T05:48:51;5.30;99.90
41447;DHT22;27185;52.040;4.490;2022-12-07T05:51:36;5.20;99.90
41447;DHT22;27185;52.040;4.490;2022-12-07T05:54:22;5.10;99.90
41447;DHT22;27185;52.040;4.490;2022-12-07T05:57:07;5.00;99.90
41447;DHT22;27185;52.040;4.490;2022-12-07T05:59:53;5.00;99.90
41447;DHT22;27185;52.040;4.490;2022-12-07T06:02:39;4.90;99.90
41447;DHT22;27185;52.040;4.490;2022-12-07T06:05:24;4.90;99.90
41447;DHT22;27185;52.040;4.490;2022-12-07T06:08:10;4.90;99.90
41447;DHT22;27185;52.040;4.490;2022-12-07T06:10:55;4.90;99.90
41447;DHT22;27185;52.040;4.490;2022-12-07T06:13:59;5.00;99.90
41447;DHT22;27185;52.040;4.490;2022-12-07T06:16:45;5.00;99.90
41447;DHT22;27185;52.040;4.490;2022-12-07T06:19:31;5.00;99.90
41447;DHT22;27185;52.040;4.490;2022-12-07T06:22:17;5.00;99.90
41447;DHT22;27185;52.040;4.490;2022-12-07T06:25:03;4.90;99.90
41447;DHT22;27185;52.040;4.490;2022-12-07T06:27:49;5.00;99.90
41447;DHT22;27185;52.040;4.490;2022-12-07T06:30:34;5.00;99.90
41447;DHT22;27185;52.040;4.490;2022-12-07T06:33:20;4.90;99.90
41447;DHT22;27185;52.040;4.490;2022-12-07T06:36:06;4.90;99.90
41447;DHT22;27185;52.040;4.490;2022-12-07T06:38:52;4.90;99.90
41447;DHT22;27185;52.040;4.490;2022-12-07T06:41:38;4.90;99.90
41447;DHT22;27185;52.040;4.490;2022-12-07T06:44:24;4.90;99.90
41447;DHT22;27185;52.040;4.490;2022-12-07T06:47:11;4.90;99.90
41447;DHT22;27185;52.040;4.490;2022-12-07T06:49:57;5.00;99.90
41447;DHT22;27185;52.040;4.490;2022-12-07T06:52:42;5.10;99.90
41447;DHT22;27185;52.040;4.490;2022-12-07T06:55:28;5.30;99.90
41447;DHT22;27185;52.040;4.490;2022-12-07T06:58:14;5.40;99.90
41447;DHT22;27185;52.040;4.490;2022-12-07T07:01:00;5.70;99.90
41447;DHT22;27185;52.040;4.490;2022-12-07T07:03:46;5.80;99.90
41447;DHT22;27185;52.040;4.490;2022-12-07T07:06:32;6.00;99.90
41447;DHT22;27185;52.040;4.490;2022-12-07T07:09:18;6.00;99.90
41447;DHT22;27185;52.040;4.490;2022-12-07T07:12:03;6.10;99.90
41447;DHT22;27185;52.040;4.490;2022-12-07T07:14:49;6.10;99.90
41447;DHT22;27185;52.040;4.490;2022-12-07T07:17:34;6.10;99.90
41447;DHT22;27185;52.040;4.490;2022-12-07T07:20:20;6.10;99.90
41447;DHT22;27185;52.040;4.490;2022-12-07T07:23:07;6.20;99.90
41447;DHT22;27185;52.040;4.490;2022-12-07T07:25:53;6.20;99.90
41447;DHT22;27185;52.040;4.490;2022-12-07T07:28:38;6.30;99.90
41447;DHT22;27185;52.040;4.490;2022-12-07T07:31:24;6.40;99.90
41447;DHT22;27185;52.040;4.490;2022-12-07T07:34:09;6.40;99.90
41447;DHT22;27185;52.040;4.490;2022-12-07T07:36:55;6.40;99.90
41447;DHT22;27185;52.040;4.490;2022-12-07T07:39:40;6.40;99.90
41447;DHT22;27185;52.040;4.490;2022-12-07T07:42:26;6.40;99.90
41447;DHT22;27185;52.040;4.490;2022-12-07T07:45:12;6.40;99.90
41447;DHT22;27185;52.040;4.490;2022-12-07T07:47:57;6.40;99.90
41447;DHT22;27185;52.040;4.490;2022-12-07T07:50:43;6.50;99.90
41447;DHT22;27185;52.040;4.490;2022-12-07T07:53:28;6.60;99.90
41447;DHT22;27185;52.040;4.490;2022-12-07T07:56:14;6.60;99.90
41447;DHT22;27185;52.040;4.490;2022-12-07T07:58:59;6.70;99.90
41447;DHT22;27185;52.040;4.490;2022-12-07T08:01:45;6.80;99.90
41447;DHT22;27185;52.040;4.490;2022-12-07T08:04:30;6.90;99.90
41447;DHT22;27185;52.040;4.490;2022-12-07T08:07:16;6.90;99.90
41447;DHT22;27185;52.040;4.490;2022-12-07T08:10:02;7.00;99.90
41447;DHT22;27185;52.040;4.490;2022-12-07T08:12:48;7.00;99.90
41447;DHT22;27185;52.040;4.490;2022-12-07T08:15:52;7.00;99.90
41447;DHT22;27185;52.040;4.490;2022-12-07T08:18:39;7.00;99.90
41447;DHT22;27185;52.040;4.490;2022-12-07T08:21:25;6.90;99.90
41447;DHT22;27185;52.040;4.490;2022-12-07T08:24:10;6.90;99.90
41447;DHT22;27185;52.040;4.490;2022-12-07T08:26:56;6.90;99.90
41447;DHT22;27185;52.040;4.490;2022-12-07T08:29:42;6.90;99.90
41447;DHT22;27185;52.040;4.490;2022-12-07T08:32:27;6.90;99.90
41447;DHT22;27185;52.040;4.490;2022-12-07T08:35:14;6.90;99.90
41447;DHT22;27185;52.040;4.490;2022-12-07T08:38:00;6.90;99.90
41447;DHT22;27185;52.040;4.490;2022-12-07T08:40:55;6.90;99.90
41447;DHT22;27185;52.040;4.490;2022-12-07T08:43:41;6.90;99.90
41447;DHT22;27185;52.040;4.490;2022-12-07T08:46:34;7.00;99.90
41447;DHT22;27185;52.040;4.490;2022-12-07T08:49:31;7.00;99.90
41447;DHT22;27185;52.040;4.490;2022-12-07T08:52:18;7.00;99.90
41447;DHT22;27185;52.040;4.490;2022-12-07T08:55:05;6.90;99.90
41447;DHT22;27185;52.040;4.490;2022-12-07T08:57:51;6.90;99.90
41447;DHT22;27185;52.040;4.490;2022-12-07T09:00:36;6.90;99.90
41447;DHT22;27185;52.040;4.490;2022-12-07T09:03:22;6.90;99.90
41447;DHT22;27185;52.040;4.490;2022-12-07T09:06:08;6.90;99.90
41447;DHT22;27185;52.040;4.490;2022-12-07T09:08:58;7.00;99.90
41447;DHT22;27185;52.040;4.490;2022-12-07T09:11:46;7.00;99.90
41447;DHT22;27185;52.040;4.490;2022-12-07T09:14:32;7.20;99.90
41447;DHT22;27185;52.040;4.490;2022-12-07T09:17:18;7.20;99.90
41447;DHT22;27185;52.040;4.490;2022-12-07T09:20:05;7.30;99.90
41447;DHT22;27185;52.040;4.490;2022-12-07T09:22:51;7.40;99.90
41447;DHT22;27185;52.040;4.490;2022-12-07T09:25:36;7.40;99.90
41447;DHT22;27185;52.040;4.490;2022-12-07T09:28:22;7.50;99.90
41447;DHT22;27185;52.040;4.490;2022-12-07T09:31:08;7.50;99.90
41447;DHT22;27185;52.040;4.490;2022-12-07T09:33:58;7.50;99.90
41447;DHT22;27185;52.040;4.490;2022-12-07T09:36:44;7.50;99.90
41447;DHT22;27185;52.040;4.490;2022-12-07T09:39:29;7.40;99.90
41447;DHT22;27185;52.040;4.490;2022-12-07T09:42:36;7.30;99.90
41447;DHT22;27185;52.040;4.490;2022-12-07T09:45:30;7.30;99.90
41447;DHT22;27185;52.040;4.490;2022-12-07T09:48:18;7.20;99.90
41447;DHT22;27185;52.040;4.490;2022-12-07T09:51:18;7.20;99.90
41447;DHT22;27185;52.040;4.490;2022-12-07T09:54:04;7.10;99.90
41447;DHT22;27185;52.040;4.490;2022-12-07T09:56:49;7.20;99.90
41447;DHT22;27185;52.040;4.490;2022-12-07T09:59:35;7.20;99.90
41447;DHT22;27185;52.040;4.490;2022-12-07T10:02:37;7.40;99.90
41447;DHT22;27185;52.040;4.490;2022-12-07T10:05:30;7.50;99.90
41447;DHT22;27185;52.040;4.490;2022-12-07T10:08:16;7.70;99.90
41447;DHT22;27185;52.040;4.490;2022-12-07T10:11:02;7.80;99.90
41447;DHT22;27185;52.040;4.490;2022-12-07T10:13:51;7.80;99.90
41447;DHT22;27185;52.040;4.490;2022-12-07T10:16:41;7.90;99.90
41447;DHT22;27185;52.040;4.490;2022-12-07T10:19:32;7.90;99.90
41447;DHT22;27185;52.040;4.490;2022-12-07T10:22:21;8.00;99.90
41447;DHT22;27185;52.040;4.490;2022-12-07T10:25:19;8.00;99.90
41447;DHT22;27185;52.040;4.490;2022-12-07T10:30:59;8.20;99.90
41447;DHT22;27185;52.040;4.490;2022-12-07T10:33:57;8.30;99.90
41447;DHT22;27185;52.040;4.490;2022-12-07T10:36:42;8.40;99.90
41447;DHT22;27185;52.040;4.490;2022-12-07T10:39:28;8.50;99.90
41447;DHT22;27185;52.040;4.490;2022-12-07T10:42:28;8.70;99.90
41447;DHT22;27185;52.040;4.490;2022-12-07T10:45:18;8.80;99.90
41447;DHT22;27185;52.040;4.490;2022-12-07T10:54:12;9.10;99.90
41447;DHT22;27185;52.040;4.490;2022-12-07T11:00:04;9.20;99.90
41447;DHT22;27185;52.040;4.490;2022-12-07T11:11:48;9.20;99.90
41447;DHT22;27185;52.040;4.490;2022-12-07T11:14:58;9.30;99.90
41447;DHT22;27185;52.040;4.490;2022-12-07T11:18:01;9.30;99.90
41447;DHT22;27185;52.040;4.490;2022-12-07T11:21:07;9.30;99.90
41447;DHT22;27185;52.040;4.490;2022-12-07T11:30:13;9.60;99.90
41447;DHT22;27185;52.040;4.490;2022-12-07T11:33:17;9.70;99.90
41447;DHT22;27185;52.040;4.490;2022-12-07T11:42:30;9.80;99.90
41447;DHT22;27185;52.040;4.490;2022-12-07T11:45:32;9.80;99.90
41447;DHT22;27185;52.040;4.490;2022-12-07T11:48:29;9.60;99.90
41447;DHT22;27185;52.040;4.490;2022-12-07T11:51:16;9.30;99.90
41447;DHT22;27185;52.040;4.490;2022-12-07T11:54:14;9.00;99.90
41447;DHT22;27185;52.040;4.490;2022-12-07T11:57:04;8.90;99.90
41447;DHT22;27185;52.040;4.490;2022-12-07T11:59:57;8.70;99.90
41447;DHT22;27185;52.040;4.490;2022-12-07T12:02:58;8.50;99.90
41447;DHT22;27185;52.040;4.490;2022-12-07T12:05:47;8.40;99.90
41447;DHT22;27185;52.040;4.490;2022-12-07T12:08:41;8.30;99.90
41447;DHT22;27185;52.040;4.490;2022-12-07T12:21:07;8.20;99.90
41447;DHT22;27185;52.040;4.490;2022-12-07T12:24:16;8.20;99.90
41447;DHT22;27185;52.040;4.490;2022-12-07T12:27:06;8.20;99.90
41447;DHT22;27185;52.040;4.490;2022-12-07T12:29:55;8.30;99.90
41447;DHT22;27185;52.040;4.490;2022-12-07T12:32:45;8.30;99.90
41447;DHT22;27185;52.040;4.490;2022-12-07T12:35:36;8.40;99.90
41447;DHT22;27185;52.040;4.490;2022-12-07T12:38:32;8.50;99.90
41447;DHT22;27185;52.040;4.490;2022-12-07T12:45:23;8.70;99.90
41447;DHT22;27185;52.040;4.490;2022-12-07T12:48:35;8.80;99.90
41447;DHT22;27185;52.040;4.490;2022-12-07T12:55:15;9.10;99.90
41447;DHT22;27185;52.040;4.490;2022-12-07T13:04:25;9.30;99.90
41447;DHT22;27185;52.040;4.490;2022-12-07T13:07:13;9.30;99.90
41447;DHT22;27185;52.040;4.490;2022-12-07T13:18:53;8.80;99.90
41447;DHT22;27185;52.040;4.490;2022-12-07T13:24:24;8.70;99.90
41447;DHT22;27185;52.040;4.490;2022-12-07T13:27:11;8.70;99.90
41447;DHT22;27185;52.040;4.490;2022-12-07T13:29:57;8.70;99.90
41447;DHT22;27185;52.040;4.490;2022-12-07T13:32:54;8.70;99.90
41447;DHT22;27185;52.040;4.490;2022-12-07T13:35:40;8.90;99.90
41447;DHT22;27185;52.040;4.490;2022-12-07T13:38:35;9.10;99.90
41447;DHT22;27185;52.040;4.490;2022-12-07T13:41:27;9.40;99.90
41447;DHT22;27185;52.040;4.490;2022-12-07T13:44:15;9.70;99.90
41447;DHT22;27185;52.040;4.490;2022-12-07T13:49:54;10.30;99.90
41447;DHT22;27185;52.040;4.490;2022-12-07T13:52:44;10.60;99.90
41447;DHT22;27185;52.040;4.490;2022-12-07T13:55:30;10.90;99.90
41447;DHT22;27185;52.040;4.490;2022-12-07T13:58:16;11.20;99.90
41447;DHT22;27185;52.040;4.490;2022-12-07T14:01:02;11.30;99.90
41447;DHT22;27185;52.040;4.490;2022-12-07T14:03:48;11.20;99.90
41447;DHT22;27185;52.040;4.490;2022-12-07T14:06:33;11.10;99.90
41447;DHT22;27185;52.040;4.490;2022-12-07T14:09:24;10.90;99.90
41447;DHT22;27185;52.040;4.490;2022-12-07T14:12:12;10.70;99.90
41447;DHT22;27185;52.040;4.490;2022-12-07T14:14:59;10.50;99.90
41447;DHT22;27185;52.040;4.490;2022-12-07T14:17:50;10.30;99.90
41447;DHT22;27185;52.040;4.490;2022-12-07T14:20:39;10.20;99.90
41447;DHT22;27185;52.040;4.490;2022-12-07T14:23:26;10.00;99.90
41447;DHT22;27185;52.040;4.490;2022-12-07T14:26:20;9.90;99.90
41447;DHT22;27185;52.040;4.490;2022-12-07T14:29:21;9.80;99.90
41447;DHT22;27185;52.040;4.490;2022-12-07T14:32:28;9.60;99.90
41447;DHT22;27185;52.040;4.490;2022-12-07T14:35:16;9.50;99.90
41447;DHT22;27185;52.040;4.490;2022-12-07T14:38:02;9.50;99.90
41447;DHT22;27185;52.040;4.490;2022-12-07T14:40:48;9.40;99.90
41447;DHT22;27185;52.040;4.490;2022-12-07T14:43:34;9.30;99.90
41447;DHT22;27185;52.040;4.490;2022-12-07T14:46:19;9.30;99.90
41447;DHT22;27185;52.040;4.490;2022-12-07T14:49:05;9.20;99.90
41447;DHT22;27185;52.040;4.490;2022-12-07T14:51:50;9.20;99.90
41447;DHT22;27185;52.040;4.490;2022-12-07T14:54:36;9.10;99.90
41447;DHT22;27185;52.040;4.490;2022-12-07T14:57:22;9.10;99.90
41447;DHT22;27185;52.040;4.490;2022-12-07T15:00:09;9.10;99.90
41447;DHT22;27185;52.040;4.490;2022-12-07T15:02:58;9.10;99.90
41447;DHT22;27185;52.040;4.490;2022-12-07T15:05:44;9.10;99.90
41447;DHT22;27185;52.040;4.490;2022-12-07T15:08:29;9.00;99.90
41447;DHT22;27185;52.040;4.490;2022-12-07T15:11:16;9.00;99.90
41447;DHT22;27185;52.040;4.490;2022-12-07T15:14:02;8.90;99.90
41447;DHT22;27185;52.040;4.490;2022-12-07T15:16:54;8.80;99.90
41447;DHT22;27185;52.040;4.490;2022-12-07T15:19:39;8.70;99.90
41447;DHT22;27185;52.040;4.490;2022-12-07T15:22:25;8.60;99.90
41447;DHT22;27185;52.040;4.490;2022-12-07T15:25:13;8.60;99.90
41447;DHT22;27185;52.040;4.490;2022-12-07T15:27:59;8.50;99.90
41447;DHT22;27185;52.040;4.490;2022-12-07T15:30:45;8.40;99.90
41447;DHT22;27185;52.040;4.490;2022-12-07T15:33:31;8.40;99.90
41447;DHT22;27185;52.040;4.490;2022-12-07T15:36:22;8.40;99.90
41447;DHT22;27185;52.040;4.490;2022-12-07T15:39:09;8.30;99.90
41447;DHT22;27185;52.040;4.490;2022-12-07T15:41:54;8.30;99.90
41447;DHT22;27185;52.040;4.490;2022-12-07T15:44:40;8.30;99.90
41447;DHT22;27185;52.040;4.490;2022-12-07T15:47:54;8.30;99.90
41447;DHT22;27185;52.040;4.490;2022-12-07T15:50:40;8.30;99.90
41447;DHT22;27185;52.040;4.490;2022-12-07T15:53:26;8.30;99.90
41447;DHT22;27185;52.040;4.490;2022-12-07T15:56:11;8.30;99.90
41447;DHT22;27185;52.040;4.490;2022-12-07T15:58:57;8.30;99.90
41447;DHT22;27185;52.040;4.490;2022-12-07T16:01:43;8.40;99.90
41447;DHT22;27185;52.040;4.490;2022-12-07T16:04:29;8.40;99.90
41447;DHT22;27185;52.040;4.490;2022-12-07T16:07:15;8.40;99.90
41447;DHT22;27185;52.040;4.490;2022-12-07T16:10:01;8.40;99.90
41447;DHT22;27185;52.040;4.490;2022-12-07T16:12:46;8.40;99.90
41447;DHT22;27185;52.040;4.490;2022-12-07T16:15:32;8.40;99.90
41447;DHT22;27185;52.040;4.490;2022-12-07T16:18:17;8.40;99.90
41447;DHT22;27185;52.040;4.490;2022-12-07T16:21:03;8.40;99.90
41447;DHT22;27185;52.040;4.490;2022-12-07T16:23:49;8.40;99.90
41447;DHT22;27185;52.040;4.490;2022-12-07T16:26:35;8.40;99.90
41447;DHT22;27185;52.040;4.490;2022-12-07T16:29:22;8.40;99.90
41447;DHT22;27185;52.040;4.490;2022-12-07T16:32:07;8.40;99.90
41447;DHT22;27185;52.040;4.490;2022-12-07T16:34:53;8.40;99.90
41447;DHT22;27185;52.040;4.490;2022-12-07T16:37:41;8.40;99.90
41447;DHT22;27185;52.040;4.490;2022-12-07T16:40:27;8.30;99.90
41447;DHT22;27185;52.040;4.490;2022-12-07T16:43:13;8.30;99.90
41447;DHT22;27185;52.040;4.490;2022-12-07T16:45:59;8.30;99.90
41447;DHT22;27185;52.040;4.490;2022-12-07T16:48:45;8.30;99.90
41447;DHT22;27185;52.040;4.490;2022-12-07T16:51:31;8.20;99.90
41447;DHT22;27185;52.040;4.490;2022-12-07T16:54:17;8.20;99.90
41447;DHT22;27185;52.040;4.490;2022-12-07T16:57:02;8.20;99.90
41447;DHT22;27185;52.040;4.490;2022-12-07T16:59:48;8.20;99.90
41447;DHT22;27185;52.040;4.490;2022-12-07T17:02:33;8.10;99.90
41447;DHT22;27185;52.040;4.490;2022-12-07T17:05:19;8.10;99.90
41447;DHT22;27185;52.040;4.490;2022-12-07T17:08:04;8.10;99.90
41447;DHT22;27185;52.040;4.490;2022-12-07T17:10:50;8.10;99.90
41447;DHT22;27185;52.040;4.490;2022-12-07T17:13:35;8.10;99.90
41447;DHT22;27185;52.040;4.490;2022-12-07T17:16:40;8.10;99.90
41447;DHT22;27185;52.040;4.490;2022-12-07T17:19:25;8.10;99.90
41447;DHT22;27185;52.040;4.490;2022-12-07T17:22:11;8.10;99.90
41447;DHT22;27185;52.040;4.490;2022-12-07T17:24:57;8.10;99.90
41447;DHT22;27185;52.040;4.490;2022-12-07T17:27:44;8.10;99.90
41447;DHT22;27185;52.040;4.490;2022-12-07T17:30:30;8.10;99.90
41447;DHT22;27185;52.040;4.490;2022-12-07T17:33:16;8.10;99.90
41447;DHT22;27185;52.040;4.490;2022-12-07T17:36:10;8.10;99.90
41447;DHT22;27185;52.040;4.490;2022-12-07T17:38:56;8.10;99.90
41447;DHT22;27185;52.040;4.490;2022-12-07T17:41:42;8.20;99.90
41447;DHT22;27185;52.040;4.490;2022-12-07T17:44:46;8.10;99.90
41447;DHT22;27185;52.040;4.490;2022-12-07T17:47:32;8.20;99.90
41447;DHT22;27185;52.040;4.490;2022-12-07T17:50:18;8.20;99.90
41447;DHT22;27185;52.040;4.490;2022-12-07T17:53:23;8.20;99.90
41447;DHT22;27185;52.040;4.490;2022-12-07T17:56:09;8.20;99.90
41447;DHT22;27185;52.040;4.490;2022-12-07T17:58:54;8.30;99.90
41447;DHT22;27185;52.040;4.490;2022-12-07T18:01:40;8.30;99.90
41447;DHT22;27185;52.040;4.490;2022-12-07T18:04:26;8.30;99.90
41447;DHT22;27185;52.040;4.490;2022-12-07T18:07:12;8.30;99.90
41447;DHT22;27185;52.040;4.490;2022-12-07T18:09:58;8.30;99.90
41447;DHT22;27185;52.040;4.490;2022-12-07T18:12:44;8.30;99.90
41447;DHT22;27185;52.040;4.490;2022-12-07T18:15:29;8.30;99.90
41447;DHT22;27185;52.040;4.490;2022-12-07T18:18:15;8.30;99.90
41447;DHT22;27185;52.040;4.490;2022-12-07T18:21:08;8.30;99.90
41447;DHT22;27185;52.040;4.490;2022-12-07T18:24:00;8.30;99.90
41447;DHT22;27185;52.040;4.490;2022-12-07T18:26:46;8.30;99.90
41447;DHT22;27185;52.040;4.490;2022-12-07T18:29:32;8.30;99.90
41447;DHT22;27185;52.040;4.490;2022-12-07T18:32:18;8.40;99.90
41447;DHT22;27185;52.040;4.490;2022-12-07T18:35:03;8.40;99.90
41447;DHT22;27185;52.040;4.490;2022-12-07T18:37:49;8.40;99.90
41447;DHT22;27185;52.040;4.490;2022-12-07T18:40:38;8.20;99.90
41447;DHT22;27185;52.040;4.490;2022-12-07T18:43:24;8.10;99.90
41447;DHT22;27185;52.040;4.490;2022-12-07T18:46:11;7.90;99.90
41447;DHT22;27185;52.040;4.490;2022-12-07T18:48:57;7.70;99.90
41447;DHT22;27185;52.040;4.490;2022-12-07T18:51:43;7.60;99.90
41447;DHT22;27185;52.040;4.490;2022-12-07T18:54:29;7.50;99.90
41447;DHT22;27185;52.040;4.490;2022-12-07T18:57:15;7.40;99.90
41447;DHT22;27185;52.040;4.490;2022-12-07T19:00:01;7.30;99.90
41447;DHT22;27185;52.040;4.490;2022-12-07T19:02:47;7.20;99.90
41447;DHT22;27185;52.040;4.490;2022-12-07T19:05:32;7.20;99.90
41447;DHT22;27185;52.040;4.490;2022-12-07T19:08:18;7.10;99.90
41447;DHT22;27185;52.040;4.490;2022-12-07T19:11:03;7.10;99.90
41447;DHT22;27185;52.040;4.490;2022-12-07T19:14:09;7.00;99.90
41447;DHT22;27185;52.040;4.490;2022-12-07T19:16:57;7.00;99.90
41447;DHT22;27185;52.040;4.490;2022-12-07T19:19:44;6.90;99.90
41447;DHT22;27185;52.040;4.490;2022-12-07T19:22:30;6.90;99.90
41447;DHT22;27185;52.040;4.490;2022-12-07T19:25:16;6.90;99.90
41447;DHT22;27185;52.040;4.490;2022-12-07T19:28:02;6.80;99.90